Time;durP1;ratioP1;P1;durP2;ratioP2;P2;SDS_P1;SDS_P2;PMS_P1;PMS_P2;Temp;Humidity;BMP_temperature;BMP_pressure;BME280_temperature;BME280_humidity;BME280_pressure;Samples;Min_cycle;Max_cycle;Signal;HPM_P1;HPM_P2
2023/04/13 00:01:11;;;;;;;5.10;1.63;;;6.70;74.10;;;;;;5026766;28;20054;-69
2023/04/13 00:03:38;;;;;;;4.15;1.65;;;6.80;74.10;;;;;;5027984;28;20057;-69
2023/04/13 00:06:09;;;;;;;5.03;1.88;;;6.80;74.20;;;;;;5028775;28;20120;-70
2023/04/13 00:08:36;;;;;;;3.90;1.48;;;6.80;74.30;;;;;;5026853;28;20060;-70
2023/04/13 00:11:06;;;;;;;5.18;2.08;;;6.80;74.10;;;;;;5026345;28;20161;-70
2023/04/13 00:13:40;;;;;;;4.63;1.70;;;6.90;74.20;;;;;;5026852;28;20060;-69
2023/04/13 00:16:08;;;;;;;5.35;1.88;;;6.90;74.10;;;;;;5027003;28;20050;-70
2023/04/13 00:18:35;;;;;;;4.25;1.75;;;6.90;74.10;;;;;;5028118;28;20081;-70
2023/04/13 00:21:02;;;;;;;4.90;1.55;;;6.90;74.00;;;;;;5022817;28;20039;-70
2023/04/13 00:23:30;;;;;;;4.18;1.50;;;6.90;74.00;;;;;;5027826;28;20129;-69
2023/04/13 00:25:58;;;;;;;4.80;1.67;;;7.00;73.90;;;;;;5021825;28;20057;-70
2023/04/13 00:28:27;;;;;;;3.67;1.30;;;7.00;73.90;;;;;;5026692;28;20058;-70
2023/04/13 00:30:54;;;;;;;3.58;1.23;;;7.00;73.90;;;;;;5020964;28;20398;-70
2023/04/13 00:33:21;;;;;;;4.47;1.60;;;7.00;73.90;;;;;;5033915;28;20151;-70
2023/04/13 00:35:48;;;;;;;5.30;1.70;;;7.10;74.00;;;;;;5018681;28;20129;-70
2023/04/13 00:38:16;;;;;;;5.73;2.07;;;7.20;74.00;;;;;;5026278;28;20061;-70
2023/04/13 00:40:45;;;;;;;4.72;1.92;;;7.20;74.70;;;;;;5026729;28;20096;-69
2023/04/13 00:43:13;;;;;;;4.88;2.13;;;7.20;74.40;;;;;;5024488;28;20116;-70
2023/04/13 00:45:42;;;;;;;4.88;2.20;;;7.20;74.80;;;;;;5027047;28;20512;-70
2023/04/13 00:48:10;;;;;;;4.65;1.63;;;7.30;75.20;;;;;;5026521;28;20703;-70
2023/04/13 00:50:37;;;;;;;3.90;1.33;;;7.40;75.10;;;;;;5027065;28;20049;-70
2023/04/13 00:53:05;;;;;;;4.00;1.63;;;7.30;75.20;;;;;;5009428;28;20448;-70
2023/04/13 00:55:37;;;;;;;4.80;1.13;;;7.20;75.20;;;;;;5018298;28;20487;-70
2023/04/13 00:58:04;;;;;;;4.10;1.40;;;7.20;76.00;;;;;;5026439;28;20053;-69
2023/04/13 01:00:31;;;;;;;4.18;1.23;;;7.20;75.70;;;;;;5024837;28;20039;-69
2023/04/13 01:03:00;;;;;;;4.27;1.00;;;7.20;76.00;;;;;;5026486;28;20046;-70
2023/04/13 01:05:32;;;;;;;3.45;0.93;;;7.20;76.20;;;;;;5011369;28;20050;-70
2023/04/13 01:08:07;;;;;;;6.10;1.27;;;7.20;76.80;;;;;;5019953;28;20609;-70
2023/04/13 01:10:40;;;;;;;3.40;1.05;;;7.10;76.60;;;;;;5028807;28;20104;-70
2023/04/13 01:13:16;;;;;;;3.65;1.15;;;7.10;77.00;;;;;;5013320;28;20135;-70
2023/04/13 01:15:55;;;;;;;4.27;0.90;;;7.00;76.80;;;;;;5010336;28;20093;-70
2023/04/13 01:18:26;;;;;;;4.38;0.98;;;7.00;77.50;;;;;;5019567;28;20558;-70
2023/04/13 01:20:54;;;;;;;4.30;1.00;;;7.00;77.30;;;;;;5029417;28;20089;-70
2023/04/13 01:23:30;;;;;;;4.60;1.00;;;7.00;77.40;;;;;;5021360;28;20497;-70
2023/04/13 01:26:02;;;;;;;5.43;1.10;;;7.00;77.90;;;;;;5039067;28;20112;-70
2023/04/13 01:28:32;;;;;;;4.00;1.00;;;7.00;78.30;;;;;;5029355;28;20105;-70
2023/04/13 01:31:00;;;;;;;3.67;1.02;;;7.00;78.10;;;;;;5030626;28;20324;-70
2023/04/13 01:33:29;;;;;;;3.47;0.90;;;7.00;78.20;;;;;;5013396;28;20395;-70
2023/04/13 01:35:59;;;;;;;3.60;1.10;;;7.00;78.20;;;;;;5008367;28;20499;-70
2023/04/13 01:38:26;;;;;;;5.15;1.00;;;7.00;78.70;;;;;;4993514;28;20129;-70
2023/04/13 01:40:57;;;;;;;3.67;1.00;;;7.00;78.50;;;;;;5001482;28;20586;-70
2023/04/13 01:43:25;;;;;;;3.13;0.80;;;6.90;78.50;;;;;;5013200;28;20089;-70
2023/04/13 01:46:12;;;;;;;4.38;0.90;;;6.90;78.50;;;;;;5012825;28;20053;-70
2023/04/13 01:49:00;;;;;;;4.60;0.90;;;6.90;78.50;;;;;;5030790;28;20052;-69
2023/04/13 01:51:34;;;;;;;3.90;0.80;;;6.90;78.90;;;;;;5029659;28;20072;-70
2023/04/13 01:54:09;;;;;;;4.93;0.70;;;7.00;78.70;;;;;;5018639;28;20504;-69
2023/04/13 01:56:37;;;;;;;2.38;0.60;;;7.00;78.90;;;;;;5029469;28;20580;-70
2023/04/13 01:59:05;;;;;;;3.55;0.90;;;7.00;79.00;;;;;;5028687;28;20057;-70
2023/04/13 02:01:34;;;;;;;3.67;0.68;;;7.00;79.00;;;;;;5029286;28;20046;-70
2023/04/13 02:04:02;;;;;;;3.97;0.70;;;6.90;79.00;;;;;;5012075;28;20133;-70
2023/04/13 02:06:31;;;;;;;3.53;0.70;;;6.90;79.10;;;;;;5012507;28;20743;-70
2023/04/13 02:09:00;;;;;;;2.92;0.60;;;6.90;79.00;;;;;;5012255;28;20096;-71
2023/04/13 02:11:27;;;;;;;3.65;0.70;;;7.00;79.40;;;;;;5007564;28;20095;-70
2023/04/13 02:13:56;;;;;;;3.10;0.45;;;7.00;79.40;;;;;;5026294;28;20101;-70
2023/04/13 02:16:24;;;;;;;3.28;0.80;;;6.90;79.50;;;;;;5027859;28;20045;-71
2023/04/13 02:18:52;;;;;;;2.97;0.57;;;7.00;79.70;;;;;;5011783;28;20136;-70
2023/04/13 02:21:20;;;;;;;4.03;0.57;;;6.90;79.90;;;;;;5012347;28;20112;-70
2023/04/13 02:23:51;;;;;;;3.60;0.50;;;7.00;80.20;;;;;;5028660;28;20054;-70
2023/04/13 02:26:18;;;;;;;2.45;0.50;;;6.90;80.10;;;;;;5012522;28;20076;-70
2023/04/13 02:28:46;;;;;;;2.72;0.50;;;6.90;80.20;;;;;;5026883;28;20137;-70
2023/04/13 02:31:18;;;;;;;4.70;0.70;;;6.90;80.10;;;;;;5008346;28;20598;-69
2023/04/13 02:33:46;;;;;;;3.20;0.50;;;6.90;80.50;;;;;;5029418;28;20050;-70
2023/04/13 02:36:16;;;;;;;3.10;0.60;;;6.90;80.70;;;;;;5011900;28;20057;-70
2023/04/13 02:39:12;;;;;;;3.42;0.63;;;6.90;80.50;;;;;;5021486;28;20141;-70
2023/04/13 02:41:41;;;;;;;4.00;0.95;;;6.90;81.00;;;;;;5028263;28;20046;-70
2023/04/13 02:44:09;;;;;;;2.83;0.50;;;6.90;80.80;;;;;;5026855;28;20058;-70
2023/04/13 02:46:45;;;;;;;2.90;0.70;;;6.90;81.20;;;;;;5011967;28;20074;-70
2023/04/13 02:49:16;;;;;;;3.92;0.82;;;6.80;81.10;;;;;;5027574;28;20045;-70
2023/04/13 02:51:55;;;;;;;6.53;0.90;;;6.80;81.30;;;;;;5011593;28;20042;-70
2023/04/13 02:54:33;;;;;;;3.20;0.32;;;6.80;81.70;;;;;;5028243;28;20046;-70
2023/04/13 02:57:01;;;;;;;3.23;0.67;;;6.80;81.60;;;;;;5011559;28;20046;-69
2023/04/13 02:59:28;;;;;;;3.25;0.68;;;6.80;81.60;;;;;;5042960;28;20077;-70
2023/04/13 03:01:57;;;;;;;4.45;0.93;;;6.80;81.70;;;;;;4999939;28;20135;-70
2023/04/13 03:04:24;;;;;;;5.50;0.80;;;6.80;82.10;;;;;;5012337;28;20057;-70
2023/04/13 03:06:53;;;;;;;2.92;0.70;;;6.80;81.70;;;;;;5011538;28;20050;-70
2023/04/13 03:09:22;;;;;;;1.33;0.20;;;6.80;81.70;;;;;;5028148;28;20050;-70
2023/04/13 03:11:55;;;;;;;3.63;0.85;;;6.80;82.50;;;;;;5027318;28;21068;-70
2023/04/13 03:14:23;;;;;;;3.00;0.65;;;6.80;82.10;;;;;;5027752;28;20057;-70
2023/04/13 03:16:56;;;;;;;3.45;0.80;;;6.80;82.30;;;;;;5011363;28;20141;-70
2023/04/13 03:19:27;;;;;;;3.60;0.60;;;6.90;82.70;;;;;;5005851;28;20050;-70
2023/04/13 03:21:55;;;;;;;3.90;0.93;;;6.90;82.50;;;;;;5009081;28;20053;-70
2023/04/13 03:24:27;;;;;;;4.80;1.02;;;6.80;82.50;;;;;;5026896;28;20145;-70
2023/04/13 03:26:55;;;;;;;5.60;1.20;;;6.90;82.90;;;;;;5011373;28;20050;-70
2023/04/13 03:29:28;;;;;;;3.67;0.82;;;6.90;82.90;;;;;;5009354;28;20038;-70
2023/04/13 03:31:55;;;;;;;4.07;1.10;;;6.90;83.20;;;;;;5011105;28;20613;-70
2023/04/13 03:34:23;;;;;;;3.60;1.07;;;6.90;83.40;;;;;;5027326;28;20067;-69
2023/04/13 03:36:51;;;;;;;3.33;1.02;;;6.90;83.70;;;;;;5022581;28;20464;-70
2023/04/13 03:39:20;;;;;;;4.55;1.40;;;6.90;83.50;;;;;;5007239;28;20081;-70
2023/04/13 03:41:48;;;;;;;4.22;0.90;;;6.90;83.70;;;;;;5014555;28;20050;-70
2023/04/13 03:44:16;;;;;;;3.60;1.00;;;6.90;83.60;;;;;;5027371;28;20165;-70
2023/04/13 03:46:44;;;;;;;4.63;0.83;;;6.90;83.70;;;;;;5007613;28;20074;-70
2023/04/13 03:49:21;;;;;;;3.17;0.80;;;6.90;83.90;;;;;;5007228;28;20054;-70
2023/04/13 03:51:48;;;;;;;4.53;1.02;;;6.90;84.00;;;;;;5030950;28;20129;-70
2023/04/13 03:54:20;;;;;;;3.78;1.00;;;6.90;84.00;;;;;;5027227;28;20093;-70
2023/04/13 03:56:50;;;;;;;3.53;0.95;;;6.90;84.00;;;;;;5007932;28;20117;-70
2023/04/13 03:59:17;;;;;;;3.77;1.10;;;7.00;84.10;;;;;;4990875;28;20050;-70
2023/04/13 04:01:45;;;;;;;3.72;0.95;;;6.90;84.00;;;;;;4996486;28;20183;-70
2023/04/13 04:04:12;;;;;;;4.75;1.10;;;7.00;84.20;;;;;;5010762;28;20563;-70
2023/04/13 04:06:39;;;;;;;3.55;0.90;;;6.90;84.20;;;;;;5027281;28;20124;-70
2023/04/13 04:09:12;;;;;;;3.95;1.00;;;7.00;84.40;;;;;;5010555;28;20050;-70
2023/04/13 04:11:45;;;;;;;6.87;1.10;;;7.00;84.40;;;;;;5005205;28;20054;-69
2023/04/13 04:14:15;;;;;;;3.65;1.00;;;7.00;84.40;;;;;;4991075;28;20404;-71
2023/04/13 04:16:51;;;;;;;3.35;0.90;;;7.00;84.50;;;;;;4996280;28;20057;-70
2023/04/13 04:19:19;;;;;;;3.80;0.98;;;7.00;84.60;;;;;;5008856;28;20596;-70
2023/04/13 04:21:48;;;;;;;5.93;1.20;;;7.00;84.50;;;;;;5000951;28;20046;-70
2023/04/13 04:24:21;;;;;;;4.47;1.20;;;7.00;84.30;;;;;;5004009;28;20064;-70
2023/04/13 04:26:53;;;;;;;5.28;1.15;;;7.00;84.50;;;;;;4991123;28;20054;-70
2023/04/13 04:29:28;;;;;;;3.50;1.25;;;7.00;84.30;;;;;;5015371;28;20061;-70
2023/04/13 04:31:55;;;;;;;3.95;1.33;;;7.00;84.30;;;;;;5017857;28;20220;-70
2023/04/13 04:34:24;;;;;;;5.85;1.80;;;7.00;84.50;;;;;;5017730;28;20058;-70
2023/04/13 04:36:52;;;;;;;4.40;1.20;;;7.00;84.50;;;;;;5006957;28;20045;-70
2023/04/13 04:39:22;;;;;;;3.80;1.33;;;7.00;84.50;;;;;;5008583;28;20050;-71
2023/04/13 04:42:02;;;;;;;4.45;1.67;;;7.00;84.50;;;;;;5035798;28;20152;-70
2023/04/13 04:44:31;;;;;;;4.22;1.63;;;7.00;84.50;;;;;;5026407;28;20528;-70
2023/04/13 04:47:03;;;;;;;5.65;1.50;;;7.00;84.30;;;;;;5005047;28;20051;-70
2023/04/13 04:49:35;;;;;;;4.60;1.80;;;7.00;84.30;;;;;;5001383;28;20503;-70
2023/04/13 04:52:03;;;;;;;4.50;1.75;;;7.00;84.30;;;;;;5009326;28;20520;-70
2023/04/13 04:54:30;;;;;;;4.47;1.70;;;7.00;84.20;;;;;;5009202;28;20698;-70
2023/04/13 04:57:00;;;;;;;4.35;1.83;;;7.00;84.00;;;;;;5026057;28;20081;-70
2023/04/13 04:59:28;;;;;;;6.10;1.95;;;7.00;84.10;;;;;;5025629;28;20053;-70
2023/04/13 05:02:03;;;;;;;4.97;1.70;;;7.00;83.80;;;;;;5025378;28;20042;-71
2023/04/13 05:04:32;;;;;;;5.25;1.70;;;7.00;84.00;;;;;;5017087;28;20045;-70
2023/04/13 05:06:59;;;;;;;4.00;1.50;;;6.90;83.80;;;;;;5004027;28;20053;-70
2023/04/13 05:09:35;;;;;;;4.50;1.50;;;6.90;83.80;;;;;;5009474;28;20735;-70
2023/04/13 05:12:03;;;;;;;6.65;1.70;;;6.90;83.70;;;;;;5022647;28;20049;-70
2023/04/13 05:14:30;;;;;;;4.43;1.53;;;6.90;83.80;;;;;;5041000;28;20057;-70
2023/04/13 05:16:59;;;;;;;5.55;1.90;;;6.90;83.70;;;;;;5019095;28;20061;-70
2023/04/13 05:19:33;;;;;;;5.40;1.92;;;6.90;83.70;;;;;;5009349;28;20127;-70
2023/04/13 05:22:32;;;;;;;4.32;1.50;;;6.90;83.80;;;;;;5013265;28;20100;-70
2023/04/13 05:25:05;;;;;;;4.90;1.65;;;6.90;83.70;;;;;;5009300;28;20046;-70
2023/04/13 05:27:32;;;;;;;5.70;1.97;;;6.80;83.80;;;;;;5021417;28;20137;-70
2023/04/13 05:29:59;;;;;;;5.28;1.60;;;6.80;83.70;;;;;;5023769;28;20570;-70
2023/04/13 05:32:26;;;;;;;6.20;2.15;;;6.80;83.80;;;;;;5006359;28;20149;-70
2023/04/13 05:34:57;;;;;;;4.68;1.92;;;6.80;83.90;;;;;;5024279;28;20424;-70
2023/04/13 05:37:27;;;;;;;5.75;1.50;;;6.80;84.00;;;;;;5029793;28;20057;-70
2023/04/13 05:39:54;;;;;;;4.30;1.50;;;6.80;84.10;;;;;;5020077;28;20086;-70
2023/04/13 05:42:27;;;;;;;6.45;1.70;;;6.80;84.00;;;;;;5024830;28;20532;-70
2023/04/13 05:44:55;;;;;;;5.00;1.95;;;6.90;84.00;;;;;;5006276;28;20050;-70
2023/04/13 05:47:23;;;;;;;6.28;1.55;;;6.90;84.10;;;;;;5020243;28;20049;-70
2023/04/13 05:49:56;;;;;;;5.50;1.75;;;6.80;84.00;;;;;;5039933;28;20497;-70
2023/04/13 05:52:25;;;;;;;5.07;1.80;;;6.80;84.10;;;;;;5026411;28;20054;-70
2023/04/13 05:54:52;;;;;;;5.55;1.77;;;6.80;84.10;;;;;;5026362;28;20527;-70
2023/04/13 05:57:21;;;;;;;5.60;1.45;;;6.80;84.20;;;;;;5025526;28;20046;-70
2023/04/13 05:59:50;;;;;;;5.63;1.40;;;6.90;84.40;;;;;;5027837;28;20058;-70
2023/04/13 06:02:24;;;;;;;7.20;2.08;;;6.90;84.30;;;;;;5023480;28;20524;-70
2023/04/13 06:04:53;;;;;;;5.93;1.60;;;6.90;84.20;;;;;;5042255;28;20073;-70
2023/04/13 06:07:21;;;;;;;5.43;1.70;;;6.90;84.50;;;;;;5029884;28;20053;-70
2023/04/13 06:09:48;;;;;;;6.70;2.40;;;6.90;84.50;;;;;;5044704;28;20053;-70
2023/04/13 06:12:17;;;;;;;6.50;2.00;;;6.90;84.60;;;;;;5028024;28;20584;-70
2023/04/13 06:14:44;;;;;;;6.93;2.30;;;7.00;84.50;;;;;;5010012;28;20055;-70
2023/04/13 06:17:11;;;;;;;6.90;2.47;;;7.00;84.40;;;;;;5030038;28;20120;-70
2023/04/13 06:19:38;;;;;;;9.13;1.73;;;7.00;84.10;;;;;;5026567;28;20062;-70
2023/04/13 06:22:05;;;;;;;6.60;2.42;;;7.00;84.20;;;;;;5011339;28;20046;-70
2023/04/13 06:24:37;;;;;;;6.30;2.70;;;7.00;84.30;;;;;;5011224;28;20046;-70
2023/04/13 06:27:07;;;;;;;7.57;2.90;;;7.00;84.30;;;;;;5044163;28;20568;-70
2023/04/13 06:29:35;;;;;;;7.80;2.33;;;7.00;84.40;;;;;;5007092;28;20046;-70
2023/04/13 06:32:09;;;;;;;8.45;3.20;;;7.00;84.40;;;;;;5006827;28;20674;-70
2023/04/13 06:34:37;;;;;;;8.45;2.60;;;7.20;84.40;;;;;;5025851;28;20050;-70
2023/04/13 06:37:05;;;;;;;8.98;2.60;;;7.20;84.30;;;;;;5010691;28;20710;-70
2023/04/13 06:39:43;;;;;;;6.60;2.05;;;7.20;84.40;;;;;;5008539;28;20061;-70
2023/04/13 06:42:11;;;;;;;7.97;2.50;;;7.20;84.30;;;;;;5027138;28;20050;-70
2023/04/13 06:45:03;;;;;;;7.25;2.33;;;7.30;84.30;;;;;;5023350;28;20101;-70
2023/04/13 06:47:39;;;;;;;7.00;2.88;;;7.40;84.00;;;;;;5026652;28;20054;-70
2023/04/13 06:50:08;;;;;;;6.88;2.10;;;7.40;84.10;;;;;;5025078;28;20050;-70
2023/04/13 06:52:37;;;;;;;6.82;1.98;;;7.40;83.80;;;;;;5024724;28;20038;-70
2023/04/13 06:55:06;;;;;;;6.83;2.50;;;7.50;83.80;;;;;;5025787;28;20500;-70
2023/04/13 06:57:38;;;;;;;7.63;2.50;;;7.50;83.40;;;;;;5021494;28;20069;-70
2023/04/13 07:00:09;;;;;;;8.90;2.28;;;7.50;83.60;;;;;;5022075;28;20527;-70
2023/04/13 07:02:37;;;;;;;7.20;2.45;;;7.50;83.30;;;;;;5025478;28;20050;-70
2023/04/13 07:05:06;;;;;;;6.63;2.25;;;7.50;83.20;;;;;;5010101;28;20056;-70
2023/04/13 07:07:33;;;;;;;6.03;2.20;;;7.50;83.20;;;;;;5025574;28;20405;-70
2023/04/13 07:10:01;;;;;;;9.57;2.80;;;7.60;82.90;;;;;;5022028;28;20572;-70
2023/04/13 07:12:33;;;;;;;8.10;2.55;;;7.60;82.70;;;;;;5035142;28;20042;-70
2023/04/13 07:15:01;;;;;;;6.82;2.60;;;7.70;82.40;;;;;;5025023;28;20053;-70
2023/04/13 07:17:30;;;;;;;7.90;2.40;;;7.70;82.30;;;;;;5027169;28;20084;-70
2023/04/13 07:19:57;;;;;;;8.00;2.83;;;7.70;82.20;;;;;;5002596;28;20062;-70
2023/04/13 07:22:24;;;;;;;7.45;2.25;;;7.70;82.20;;;;;;5020501;28;20054;-70
2023/04/13 07:24:52;;;;;;;6.22;2.40;;;7.70;82.10;;;;;;5009383;28;20508;-70
2023/04/13 07:27:20;;;;;;;7.18;2.50;;;7.80;81.80;;;;;;5021807;28;20579;-70
2023/04/13 07:29:51;;;;;;;9.43;2.40;;;7.80;81.90;;;;;;5019645;28;20096;-70
2023/04/13 07:32:22;;;;;;;7.30;2.20;;;7.80;82.10;;;;;;5008391;28;20570;-70
2023/04/13 07:34:50;;;;;;;5.95;2.28;;;7.80;82.50;;;;;;5003509;28;20436;-70
2023/04/13 07:37:17;;;;;;;5.00;1.65;;;7.80;82.60;;;;;;5020169;28;20069;-70
2023/04/13 07:39:46;;;;;;;6.05;1.95;;;7.80;82.40;;;;;;5032226;28;20428;-70
2023/04/13 07:42:14;;;;;;;6.72;2.30;;;7.80;82.40;;;;;;5006582;28;20546;-70
2023/04/13 07:44:46;;;;;;;10.03;2.57;;;8.00;82.10;;;;;;5006582;28;20042;-70
2023/04/13 07:47:15;;;;;;;7.10;2.00;;;8.00;82.10;;;;;;5026217;28;20061;-70
2023/04/13 07:49:45;;;;;;;7.45;2.70;;;8.00;82.00;;;;;;5001904;28;20054;-70
2023/04/13 07:52:16;;;;;;;8.15;2.55;;;8.00;82.20;;;;;;5014070;28;20046;-70
2023/04/13 07:54:43;;;;;;;8.77;2.00;;;8.00;81.60;;;;;;5026832;28;20053;-70
2023/04/13 07:57:12;;;;;;;9.23;1.87;;;8.00;81.10;;;;;;5014155;28;20509;-70
2023/04/13 07:59:45;;;;;;;6.30;1.80;;;8.00;81.50;;;;;;5019574;28;20050;-72
2023/04/13 08:02:13;;;;;;;7.28;2.30;;;8.00;81.50;;;;;;5041398;28;20524;-70
2023/04/13 08:04:44;;;;;;;6.22;1.70;;;8.00;81.40;;;;;;5016214;28;20058;-70
2023/04/13 08:07:14;;;;;;;7.75;1.83;;;7.90;81.50;;;;;;5004657;28;20102;-70
2023/04/13 08:09:42;;;;;;;5.73;1.90;;;7.90;81.50;;;;;;5006857;28;20511;-70
2023/04/13 08:12:09;;;;;;;5.05;1.40;;;7.90;81.60;;;;;;5014739;28;20049;-70
2023/04/13 08:14:40;;;;;;;4.60;1.65;;;7.90;81.60;;;;;;5025803;28;20550;-70
2023/04/13 08:17:10;;;;;;;4.88;1.42;;;8.00;81.70;;;;;;5007913;28;20057;-70
2023/04/13 08:19:38;;;;;;;6.45;1.45;;;8.00;81.70;;;;;;5026342;28;20551;-71
2023/04/13 08:22:06;;;;;;;3.70;1.10;;;8.00;81.20;;;;;;5022875;28;20046;-70
2023/04/13 08:24:35;;;;;;;3.85;0.80;;;8.00;81.00;;;;;;5007909;28;20056;-70
2023/04/13 08:27:06;;;;;;;4.45;1.42;;;8.10;80.40;;;;;;5020979;28;20120;-70
2023/04/13 08:29:33;;;;;;;5.13;1.38;;;8.10;80.90;;;;;;5026178;28;20065;-70
2023/04/13 08:32:00;;;;;;;5.53;1.10;;;8.10;81.20;;;;;;5018105;28;20046;-70
2023/04/13 08:34:29;;;;;;;5.40;1.17;;;8.20;80.70;;;;;;5033720;28;20046;-71
2023/04/13 08:36:56;;;;;;;4.38;1.00;;;8.30;80.30;;;;;;5009804;28;20049;-70
2023/04/13 08:39:27;;;;;;;4.78;1.10;;;8.30;80.30;;;;;;5007949;28;20147;-70
2023/04/13 08:41:55;;;;;;;4.68;1.05;;;8.30;80.40;;;;;;5025948;28;20121;-70
2023/04/13 08:44:24;;;;;;;4.93;1.20;;;8.30;80.10;;;;;;5007884;28;20050;-70
2023/04/13 08:46:53;;;;;;;3.37;0.70;;;8.20;80.20;;;;;;5023497;28;20080;-70
2023/04/13 08:49:27;;;;;;;3.78;0.85;;;8.20;80.80;;;;;;5004510;28;20056;-70
2023/04/13 08:52:23;;;;;;;3.67;0.80;;;8.20;80.50;;;;;;5008786;28;20127;-70
2023/04/13 08:54:56;;;;;;;3.78;0.57;;;8.10;80.10;;;;;;5023763;28;20103;-70
2023/04/13 08:57:27;;;;;;;4.28;0.70;;;8.10;80.20;;;;;;5016236;28;20513;-71
2023/04/13 08:59:56;;;;;;;4.20;0.70;;;8.00;80.80;;;;;;5023102;28;20052;-70
2023/04/13 09:02:24;;;;;;;4.55;0.45;;;8.00;81.30;;;;;;5005218;28;20121;-70
2023/04/13 09:04:59;;;;;;;2.45;0.35;;;8.00;81.70;;;;;;5022235;28;20048;-70
2023/04/13 09:07:29;;;;;;;2.58;0.20;;;7.90;81.00;;;;;;5007776;28;20046;-70
2023/04/13 09:10:04;;;;;;;2.42;0.15;;;7.80;79.10;;;;;;5030629;28;20569;-71
2023/04/13 09:12:32;;;;;;;6.00;0.50;;;7.70;79.20;;;;;;5009608;28;20129;-70
2023/04/13 09:15:00;;;;;;;2.25;0.30;;;7.60;80.20;;;;;;5041454;28;20054;-71
2023/04/13 09:17:32;;;;;;;1.65;0.22;;;7.60;81.30;;;;;;5002745;28;20108;-70
2023/04/13 09:20:12;;;;;;;3.33;0.50;;;7.60;82.60;;;;;;5022580;28;20065;-71
2023/04/13 09:22:39;;;;;;;3.97;0.50;;;7.70;83.40;;;;;;5040763;28;20129;-71
2023/04/13 09:25:19;;;;;;;2.90;0.70;;;7.80;83.60;;;;;;5025586;28;20061;-71
2023/04/13 09:27:46;;;;;;;2.45;0.43;;;7.90;83.70;;;;;;5028586;28;20053;-70
2023/04/13 09:30:14;;;;;;;3.33;0.60;;;8.00;84.00;;;;;;5028174;28;20101;-71
2023/04/13 09:32:41;;;;;;;4.63;0.77;;;8.00;84.10;;;;;;5029474;28;20046;-71
2023/04/13 09:35:08;;;;;;;4.47;0.47;;;8.20;83.90;;;;;;5024879;28;20454;-71
2023/04/13 09:37:38;;;;;;;4.07;0.50;;;8.20;83.90;;;;;;5028444;28;20042;-71
2023/04/13 09:40:11;;;;;;;3.35;0.40;;;8.30;83.90;;;;;;5029750;28;20053;-71
2023/04/13 09:42:40;;;;;;;3.28;0.50;;;8.30;84.00;;;;;;5043002;28;20046;-71
2023/04/13 09:45:08;;;;;;;5.38;0.60;;;8.40;83.40;;;;;;5028434;28;20054;-71
2023/04/13 09:47:37;;;;;;;4.63;0.70;;;8.50;83.30;;;;;;5026275;28;20117;-72
2023/04/13 09:50:05;;;;;;;3.93;0.50;;;8.50;82.60;;;;;;5028968;28;20058;-71
2023/04/13 09:52:33;;;;;;;3.10;0.30;;;8.50;81.90;;;;;;5039452;28;20057;-70
2023/04/13 09:55:00;;;;;;;4.28;0.60;;;8.60;82.60;;;;;;5027868;28;20485;-71
2023/04/13 09:57:30;;;;;;;4.10;0.40;;;8.60;82.80;;;;;;5025450;28;20050;-71
2023/04/13 09:59:59;;;;;;;3.80;0.40;;;8.60;83.00;;;;;;5025860;28;20182;-71
2023/04/13 10:02:27;;;;;;;3.93;0.60;;;8.70;82.70;;;;;;5025092;28;20052;-71
2023/04/13 10:04:54;;;;;;;5.85;0.75;;;8.80;82.40;;;;;;5026276;28;20042;-71
2023/04/13 10:07:25;;;;;;;5.22;0.80;;;8.80;82.20;;;;;;5026349;28;20512;-71
2023/04/13 10:09:53;;;;;;;3.28;0.73;;;8.80;82.00;;;;;;5026679;28;20049;-71
2023/04/13 10:12:20;;;;;;;4.78;0.80;;;8.90;82.00;;;;;;5024228;28;20933;-72
2023/04/13 10:14:49;;;;;;;5.53;0.90;;;8.90;81.90;;;;;;5026026;28;20084;-71
2023/04/13 10:17:39;;;;;;;6.80;1.00;;;9.00;81.10;;;;;;5023911;28;20061;-71
2023/04/13 10:20:12;;;;;;;7.38;1.17;;;9.00;81.50;;;;;;5023622;28;20049;-70
2023/04/13 10:22:42;;;;;;;4.25;0.80;;;9.00;81.80;;;;;;5025420;28;20269;-71
2023/04/13 10:25:13;;;;;;;5.72;1.27;;;9.20;80.30;;;;;;5027517;28;20551;-70
2023/04/13 10:27:41;;;;;;;3.53;0.60;;;9.20;79.20;;;;;;5025725;28;20054;-71
2023/04/13 10:30:17;;;;;;;6.47;1.00;;;9.30;77.80;;;;;;5021835;28;20054;-71
2023/04/13 10:32:44;;;;;;;7.63;1.00;;;9.40;78.70;;;;;;5026740;28;20050;-70
2023/04/13 10:35:14;;;;;;;12.60;1.38;;;9.50;77.70;;;;;;5025224;28;20571;-70
2023/04/13 10:37:44;;;;;;;8.48;1.48;;;9.60;77.10;;;;;;5026607;28;20058;-71
2023/04/13 10:40:13;;;;;;;7.97;1.30;;;9.70;77.50;;;;;;5025447;28;20042;-71
2023/04/13 10:42:45;;;;;;;4.30;1.27;;;9.80;76.80;;;;;;5022739;28;20165;-71
2023/04/13 10:45:22;;;;;;;11.27;1.50;;;9.90;75.70;;;;;;5025343;28;20054;-71
2023/04/13 10:47:50;;;;;;;10.93;1.90;;;10.00;75.00;;;;;;5014239;28;20583;-71
2023/04/13 10:50:18;;;;;;;8.43;1.27;;;10.00;75.20;;;;;;5002317;28;20182;-70
2023/04/13 10:53:00;;;;;;;8.50;1.20;;;10.00;74.70;;;;;;5003416;28;20114;-70
2023/04/13 10:55:28;;;;;;;6.88;1.35;;;10.00;74.20;;;;;;5020444;28;20481;-70
2023/04/13 10:57:56;;;;;;;9.00;1.55;;;10.00;71.90;;;;;;5005842;28;20144;-71
2023/04/13 11:00:25;;;;;;;8.23;1.20;;;10.00;71.80;;;;;;5022949;28;20067;-70
2023/04/13 11:02:55;;;;;;;7.50;1.40;;;10.00;72.70;;;;;;5002199;28;20042;-70
2023/04/13 11:05:23;;;;;;;8.50;1.17;;;10.00;73.10;;;;;;5004301;28;20109;-70
2023/04/13 11:07:51;;;;;;;6.95;1.20;;;10.00;73.20;;;;;;5002204;28;20054;-70
2023/04/13 11:10:24;;;;;;;8.48;1.50;;;10.00;71.50;;;;;;5001731;28;20054;-71
2023/04/13 11:12:52;;;;;;;8.73;1.23;;;10.00;72.50;;;;;;5004582;28;20065;-71
2023/04/13 11:15:22;;;;;;;5.88;1.05;;;10.00;71.30;;;;;;5005649;28;20574;-71
2023/04/13 11:17:56;;;;;;;6.87;1.00;;;10.00;72.10;;;;;;5005825;28;20421;-71
2023/04/13 11:20:31;;;;;;;6.97;1.13;;;10.10;69.90;;;;;;5004773;28;20058;-71
2023/04/13 11:22:58;;;;;;;8.07;1.33;;;10.20;69.20;;;;;;5002930;28;20165;-71
2023/04/13 11:25:26;;;;;;;4.53;0.85;;;10.10;69.80;;;;;;5004416;28;20588;-71
2023/04/13 11:27:58;;;;;;;7.70;1.05;;;10.10;70.10;;;;;;5008528;28;20150;-70
2023/04/13 11:30:26;;;;;;;8.40;1.30;;;10.10;69.40;;;;;;5005782;28;20243;-70
2023/04/13 11:32:57;;;;;;;4.70;0.82;;;10.10;70.00;;;;;;5006102;28;20054;-71
2023/04/13 11:35:24;;;;;;;7.43;1.13;;;10.10;69.90;;;;;;5006622;28;20141;-71
2023/04/13 11:37:53;;;;;;;10.50;1.70;;;10.10;69.70;;;;;;5006495;28;20066;-70
2023/04/13 11:40:23;;;;;;;7.57;1.52;;;10.10;69.30;;;;;;4985846;28;20196;-70
2023/04/13 11:42:52;;;;;;;5.80;1.30;;;10.00;69.90;;;;;;5005255;28;20144;-71
2023/04/13 11:45:21;;;;;;;6.22;1.08;;;10.10;69.40;;;;;;5003942;28;20058;-70
2023/04/13 11:47:49;;;;;;;7.28;1.13;;;10.10;69.20;;;;;;5010576;28;20051;-70
2023/04/13 11:50:18;;;;;;;4.40;0.73;;;10.00;69.70;;;;;;4998886;28;20078;-71
2023/04/13 11:52:46;;;;;;;5.70;0.85;;;10.00;69.00;;;;;;5021923;28;20051;-70
2023/04/13 11:55:15;;;;;;;8.90;0.97;;;10.10;69.20;;;;;;5005869;28;20164;-70
2023/04/13 11:57:43;;;;;;;9.25;1.27;;;10.00;69.20;;;;;;5004331;28;20142;-70
2023/04/13 12:00:17;;;;;;;7.10;1.30;;;10.00;70.30;;;;;;5004915;28;20734;-70
2023/04/13 12:02:45;;;;;;;7.00;1.20;;;10.00;70.70;;;;;;4999950;28;20133;-72
2023/04/13 12:05:24;;;;;;;5.53;1.25;;;10.00;70.50;;;;;;5004280;28;20120;-70
2023/04/13 12:07:53;;;;;;;7.50;1.13;;;10.00;70.70;;;;;;5003391;28;20081;-71
2023/04/13 12:10:24;;;;;;;8.68;1.20;;;10.10;70.10;;;;;;5001697;28;20369;-71
2023/04/13 12:13:01;;;;;;;5.50;1.20;;;10.20;68.60;;;;;;5006634;28;20058;-71
2023/04/13 12:15:30;;;;;;;9.02;1.10;;;10.20;68.50;;;;;;5005953;28;20054;-71
2023/04/13 12:17:58;;;;;;;7.28;0.90;;;10.20;68.60;;;;;;5010337;28;20050;-71
2023/04/13 12:20:35;;;;;;;4.97;0.80;;;10.20;67.90;;;;;;5002519;28;20616;-70
2023/04/13 12:23:02;;;;;;;6.75;1.08;;;10.20;69.00;;;;;;5006049;28;20500;-70
2023/04/13 12:25:30;;;;;;;6.45;1.00;;;10.20;68.90;;;;;;5008333;28;20072;-70
2023/04/13 12:27:57;;;;;;;7.10;1.73;;;10.30;67.50;;;;;;5004602;28;20653;-70
2023/04/13 12:30:26;;;;;;;8.55;1.20;;;10.30;66.90;;;;;;4995296;28;20082;-71
2023/04/13 12:32:54;;;;;;;4.67;0.70;;;10.30;67.30;;;;;;4995956;28;20094;-71
2023/04/13 12:35:21;;;;;;;7.05;1.10;;;10.30;67.80;;;;;;5002607;28;20117;-70
2023/04/13 12:37:51;;;;;;;8.13;1.33;;;10.30;68.30;;;;;;4998682;28;20129;-70
2023/04/13 12:40:18;;;;;;;6.85;1.40;;;10.30;68.20;;;;;;5005802;28;20105;-70
2023/04/13 12:42:46;;;;;;;4.97;1.17;;;10.30;68.60;;;;;;5007709;28;20744;-71
2023/04/13 12:45:13;;;;;;;9.40;1.10;;;10.30;69.50;;;;;;5006069;28;20086;-70
2023/04/13 12:47:40;;;;;;;10.65;1.75;;;10.30;69.10;;;;;;4997290;28;20050;-70
2023/04/13 12:50:09;;;;;;;8.27;1.30;;;10.30;69.20;;;;;;4996266;28;20055;-70
2023/04/13 12:52:39;;;;;;;7.63;1.08;;;10.40;69.30;;;;;;4989510;28;20129;-70
2023/04/13 12:55:09;;;;;;;7.22;1.20;;;10.40;68.50;;;;;;5000897;28;20134;-70
2023/04/13 12:57:36;;;;;;;9.30;1.20;;;10.40;68.20;;;;;;5005507;28;20090;-72
2023/04/13 13:00:08;;;;;;;6.68;1.15;;;10.40;69.10;;;;;;5006323;28;20050;-71
2023/04/13 13:02:35;;;;;;;5.70;1.20;;;10.50;67.90;;;;;;5001913;28;20050;-71
2023/04/13 13:05:03;;;;;;;5.65;0.85;;;10.60;67.20;;;;;;5007852;28;20057;-71
2023/04/13 13:07:30;;;;;;;6.05;0.70;;;10.60;67.80;;;;;;5010878;28;20054;-70
2023/04/13 13:09:59;;;;;;;4.83;0.70;;;10.70;67.30;;;;;;5012770;28;20085;-71